createdAt,value
2022-12-19T00:01:58.296Z,18.27
2022-12-19T00:04:27.573Z,17.87
2022-12-19T00:06:58.352Z,18.53
2022-12-19T00:09:26.850Z,17.57
2022-12-19T00:11:55.155Z,17.87
2022-12-19T00:14:22.973Z,17.50
2022-12-19T00:16:50.724Z,18.53
2022-12-19T00:19:18.501Z,17.63
2022-12-19T00:21:47.680Z,18.60
2022-12-19T00:24:20.693Z,17.87
2022-12-19T00:26:50.376Z,17.13
2022-12-19T00:29:18.499Z,18.07
2022-12-19T00:31:46.410Z,17.90
2022-12-19T00:34:14.290Z,17.93
2022-12-19T00:36:42.137Z,19.07
2022-12-19T00:39:11.727Z,18.13
2022-12-19T00:41:42.208Z,17.93
2022-12-19T00:44:17.120Z,18.20
2022-12-19T00:46:52.822Z,17.53
2022-12-19T00:49:21.194Z,17.70
2022-12-19T00:51:49.700Z,17.77
2022-12-19T00:54:18.999Z,18.00
2022-12-19T00:56:47.353Z,17.23
2022-12-19T00:59:15.171Z,18.17
2022-12-19T01:01:46.334Z,17.60
2022-12-19T01:04:28.229Z,18.13
2022-12-19T01:07:01.144Z,17.87
2022-12-19T01:09:32.366Z,18.40
2022-12-19T01:12:17.545Z,18.10
2022-12-19T01:14:45.422Z,17.83
2022-12-19T01:17:13.552Z,17.47
2022-12-19T01:19:44.399Z,19.90
2022-12-19T01:22:13.104Z,17.43
2022-12-19T01:24:42.518Z,18.30
2022-12-19T01:27:10.394Z,18.90
2022-12-19T01:29:46.421Z,19.10
2022-12-19T01:32:21.686Z,18.40
2022-12-19T01:34:49.435Z,17.63
2022-12-19T01:37:18.401Z,17.27
2022-12-19T01:39:47.642Z,18.17
2022-12-19T01:42:21.143Z,18.23
2022-12-19T01:45:21.097Z,18.80
2022-12-19T01:47:53.673Z,19.23
2022-12-19T01:50:33.244Z,17.90
2022-12-19T01:53:02.248Z,17.90
2022-12-19T01:55:31.839Z,18.00
2022-12-19T01:58:01.008Z,18.70
2022-12-19T02:00:29.026Z,18.13
2022-12-19T02:03:01.854Z,19.73
2022-12-19T02:05:30.249Z,19.10
2022-12-19T02:07:58.267Z,19.00
2022-12-19T02:10:26.125Z,19.90
2022-12-19T02:12:55.366Z,19.67
2022-12-19T02:15:24.270Z,18.93
2022-12-19T02:18:06.926Z,18.23
2022-12-19T02:21:05.041Z,17.80
2022-12-19T02:24:16.297Z,20.20
2022-12-19T02:26:57.266Z,18.83
2022-12-19T02:30:02.221Z,18.23
2022-12-19T02:32:36.228Z,18.63
2022-12-19T02:35:12.812Z,19.20
2022-12-19T02:37:49.115Z,20.13
2022-12-19T02:40:23.864Z,19.10
2022-12-19T02:42:58.223Z,19.43
2022-12-19T02:45:28.971Z,18.93
2022-12-19T02:48:03.348Z,19.97
2022-12-19T02:50:38.662Z,20.23
2022-12-19T02:53:06.651Z,19.17
2022-12-19T02:55:44.747Z,19.13
2022-12-19T02:58:36.158Z,18.17
2022-12-19T03:01:14.791Z,19.30
2022-12-19T03:04:00.821Z,18.27
2022-12-19T03:06:38.502Z,18.50
2022-12-19T03:09:12.156Z,19.67
2022-12-19T03:11:42.897Z,18.50
2022-12-19T03:14:15.149Z,19.97
2022-12-19T03:16:43.384Z,19.23
2022-12-19T03:19:15.588Z,17.73
2022-12-19T03:21:45.756Z,20.57
2022-12-19T03:24:15.011Z,19.67
2022-12-19T03:26:46.602Z,19.00
2022-12-19T03:29:20.143Z,19.70
2022-12-19T03:31:48.748Z,19.70
2022-12-19T03:34:20.725Z,20.33
2022-12-19T03:36:54.873Z,19.43
2022-12-19T03:39:24.495Z,19.10
2022-12-19T03:42:10.710Z,19.30
2022-12-19T03:44:43.083Z,18.13
2022-12-19T03:47:16.064Z,19.20
2022-12-19T03:49:46.306Z,20.10
2022-12-19T03:52:26.754Z,19.63
2022-12-19T03:55:03.520Z,20.10
2022-12-19T03:57:39.006Z,18.77
2022-12-19T04:00:09.190Z,19.67
2022-12-19T04:02:40.963Z,18.90
2022-12-19T04:05:14.860Z,19.40
2022-12-19T04:07:43.577Z,20.20
2022-12-19T04:10:14.750Z,20.27
2022-12-19T04:12:49.262Z,20.17
2022-12-19T04:15:17.824Z,20.00
2022-12-19T04:17:50.501Z,19.57
2022-12-19T04:20:23.364Z,20.47
2022-12-19T04:22:57.735Z,18.93
2022-12-19T04:25:30.799Z,19.30
2022-12-19T04:28:02.374Z,19.57
2022-12-19T04:30:30.735Z,19.47
2022-12-19T04:33:04.989Z,20.97
2022-12-19T04:35:35.543Z,19.93
2022-12-19T04:38:03.703Z,19.40
2022-12-19T04:40:36.540Z,18.90
2022-12-19T04:43:08.307Z,20.40
2022-12-19T04:45:36.515Z,21.20
2022-12-19T04:48:06.126Z,19.20
2022-12-19T04:50:38.512Z,20.43
2022-12-19T04:53:07.505Z,20.07
2022-12-19T04:55:35.635Z,20.23
2022-12-19T04:58:05.343Z,20.20
2022-12-19T05:00:33.221Z,20.27
2022-12-19T05:03:01.409Z,19.67
2022-12-19T05:05:29.351Z,19.77
2022-12-19T05:08:01.460Z,20.50
2022-12-19T05:10:29.255Z,20.10
2022-12-19T05:12:56.990Z,20.93
2022-12-19T05:15:24.774Z,19.57
2022-12-19T05:17:52.611Z,19.40
2022-12-19T05:20:23.897Z,19.80
2022-12-19T05:22:51.719Z,20.57
2022-12-19T05:25:23.027Z,20.83
2022-12-19T05:27:50.808Z,20.47
2022-12-19T05:30:18.756Z,20.90
2022-12-19T05:32:46.587Z,20.07
2022-12-19T05:35:14.431Z,20.83
2022-12-19T05:37:42.303Z,20.87
2022-12-19T05:40:11.247Z,20.43
2022-12-19T05:42:40.542Z,20.67
2022-12-19T05:45:09.462Z,20.70
2022-12-19T05:47:38.477Z,21.50
2022-12-19T05:50:09.183Z,21.90
2022-12-19T05:52:37.694Z,21.30
2022-12-19T05:55:09.532Z,21.43
2022-12-19T05:57:38.174Z,21.93
2022-12-19T06:00:09.581Z,21.90
2022-12-19T06:02:37.475Z,21.17
2022-12-19T06:05:08.650Z,21.87
2022-12-19T06:07:36.576Z,21.37
2022-12-19T06:10:08.077Z,21.30
2022-12-19T06:12:36.075Z,20.93
2022-12-19T06:15:04.059Z,21.47
2022-12-19T06:17:33.343Z,20.37
2022-12-19T06:20:01.384Z,20.87
2022-12-19T06:22:29.244Z,20.73
2022-12-19T06:24:57.103Z,21.70
2022-12-19T06:27:25.099Z,21.70
2022-12-19T06:29:55.105Z,20.90
2022-12-19T06:32:23.280Z,20.80
2022-12-19T06:35:04.061Z,21.87
2022-12-19T06:37:32.428Z,21.27
2022-12-19T06:40:00.256Z,21.20
2022-12-19T06:42:27.087Z,22.07
2022-12-19T06:44:57.964Z,21.17
2022-12-19T06:47:26.250Z,21.27
2022-12-19T06:49:55.407Z,21.83
2022-12-19T06:52:23.200Z,21.27
2022-12-19T06:54:51.020Z,21.70
2022-12-19T06:57:18.828Z,21.27
2022-12-19T06:59:46.634Z,22.40
2022-12-19T07:02:26.301Z,22.27
2022-12-19T07:05:01.735Z,23.37
2022-12-19T07:07:30.732Z,22.87
2022-12-19T07:09:59.036Z,22.87
2022-12-19T07:12:27.812Z,22.00
2022-12-19T07:14:56.159Z,21.73
2022-12-19T07:17:25.422Z,21.87
2022-12-19T07:19:57.100Z,22.63
2022-12-19T07:22:28.745Z,23.27
2022-12-19T07:24:57.701Z,21.67
2022-12-19T07:27:31.717Z,22.87
2022-12-19T07:30:03.982Z,22.57
2022-12-19T07:32:32.106Z,22.40
2022-12-19T07:35:01.516Z,21.17
2022-12-19T07:37:34.358Z,22.70
2022-12-19T07:40:02.664Z,23.07
2022-12-19T07:42:32.835Z,23.43
2022-12-19T07:45:01.280Z,22.97
2022-12-19T07:47:29.160Z,21.30
2022-12-19T07:49:57.282Z,21.47
2022-12-19T07:52:26.723Z,22.13
2022-12-19T07:54:54.628Z,21.03
2022-12-19T07:57:22.652Z,21.00
2022-12-19T07:59:50.495Z,21.67
2022-12-19T08:02:18.530Z,22.37
2022-12-19T08:04:46.584Z,22.13
2022-12-19T08:07:17.026Z,22.90
2022-12-19T08:09:46.284Z,21.80
2022-12-19T08:12:14.082Z,21.53
2022-12-19T08:14:41.917Z,21.77
2022-12-19T08:17:25.285Z,21.63
2022-12-19T08:19:53.212Z,22.47
2022-12-19T08:22:21.172Z,20.73
2022-12-19T08:24:50.515Z,22.83
2022-12-19T08:27:18.737Z,22.93
2022-12-19T08:29:47.933Z,22.80
2022-12-19T08:32:20.910Z,22.57
2022-12-19T08:34:49.698Z,22.17
2022-12-19T08:37:18.782Z,23.33
2022-12-19T08:39:46.577Z,22.47
2022-12-19T08:42:16.413Z,23.67
2022-12-19T08:44:44.279Z,23.27
2022-12-19T08:47:12.149Z,21.90
2022-12-19T08:49:40.252Z,22.83
2022-12-19T08:52:08.053Z,22.33
2022-12-19T08:54:35.962Z,23.20
2022-12-19T08:57:03.787Z,23.33
2022-12-19T08:59:33.032Z,22.27
2022-12-19T09:02:02.009Z,22.37
2022-12-19T09:05:35.804Z,22.80
2022-12-19T09:07:19.052Z,23.20
2022-12-19T09:09:46.905Z,24.63
2022-12-19T09:12:16.026Z,24.37
2022-12-19T09:14:45.361Z,22.20
2022-12-19T09:17:13.353Z,22.37
2022-12-19T09:19:43.075Z,21.67
2022-12-19T09:22:17.096Z,23.70
2022-12-19T09:24:50.705Z,21.73
2022-12-19T09:27:20.628Z,22.53
2022-12-19T09:29:52.864Z,22.53
2022-12-19T09:32:23.529Z,24.35
2022-12-19T09:34:51.495Z,24.93
2022-12-19T09:37:20.255Z,24.80
2022-12-19T09:39:48.749Z,23.67
2022-12-19T09:42:32.149Z,23.83
2022-12-19T09:45:32.991Z,22.80
2022-12-19T09:48:02.827Z,21.83
2022-12-19T09:50:45.913Z,23.27
2022-12-19T09:53:20.236Z,23.27
2022-12-19T09:55:49.317Z,23.20
2022-12-19T09:58:27.797Z,23.77
2022-12-19T10:01:00.123Z,23.43
2022-12-19T10:03:33.473Z,23.77
2022-12-19T10:07:15.903Z,24.17
2022-12-19T10:10:03.111Z,22.63
2022-12-19T10:12:45.865Z,23.80
2022-12-19T10:15:03.115Z,23.80
2022-12-19T10:17:46.977Z,25.03
2022-12-19T10:20:20.486Z,23.43
2022-12-19T10:23:06.807Z,24.37
2022-12-19T10:25:50.649Z,23.17
2022-12-19T10:28:32.948Z,24.43
2022-12-19T10:31:17.206Z,23.23
2022-12-19T10:33:59.226Z,23.00
2022-12-19T10:36:55.924Z,23.00
2022-12-19T10:39:28.593Z,24.30
2022-12-19T10:42:06.178Z,23.60
2022-12-19T10:44:39.108Z,23.17
2022-12-19T10:47:15.445Z,22.20
2022-12-19T10:49:44.831Z,23.63
2022-12-19T10:52:14.131Z,24.10
2022-12-19T10:54:46.797Z,22.87
2022-12-19T10:57:25.545Z,24.30
2022-12-19T10:59:58.849Z,25.30
2022-12-19T11:02:45.917Z,25.37
2022-12-19T11:05:28.145Z,27.53
2022-12-19T11:08:05.037Z,24.63
2022-12-19T11:12:17.968Z,24.73
2022-12-19T11:19:21.212Z,23.20
2022-12-19T11:20:03.111Z,24.40
2022-12-19T11:28:23.332Z,24.20
2022-12-19T11:29:32.145Z,24.53
2022-12-19T11:30:05.876Z,25.93
2022-12-19T11:30:36.058Z,25.57
2022-12-19T11:31:51.040Z,24.53
2022-12-19T11:33:48.246Z,24.70
2022-12-19T11:36:31.511Z,25.10
2022-12-19T11:39:01.459Z,25.77
2022-12-19T11:41:33.789Z,39.13
2022-12-19T11:44:08.243Z,25.47
2022-12-19T11:46:41.683Z,25.27
2022-12-19T11:49:26.631Z,25.43
2022-12-19T11:52:01.677Z,25.37
2022-12-19T11:54:35.697Z,24.20
2022-12-19T11:57:03.690Z,23.37
2022-12-19T11:59:33.523Z,24.80
2022-12-19T12:02:17.558Z,24.37
2022-12-19T12:05:25.208Z,23.50
2022-12-19T12:08:49.362Z,23.83
2022-12-19T12:16:09.397Z,22.07
2022-12-19T12:22:58.943Z,23.27
2022-12-19T12:31:03.927Z,23.03
2022-12-19T12:31:32.466Z,21.87
2022-12-19T12:31:41.882Z,23.00
2022-12-19T12:31:46.810Z,24.97
2022-12-19T12:32:06.161Z,25.80
2022-12-19T12:35:52.125Z,23.30
2022-12-19T12:38:25.986Z,24.53
2022-12-19T12:41:05.938Z,24.47
2022-12-19T12:43:48.127Z,27.03
2022-12-19T12:46:20.790Z,25.37
2022-12-19T12:48:54.412Z,26.60
2022-12-19T12:51:24.432Z,26.13
2022-12-19T12:54:00.126Z,25.57
2022-12-19T12:56:30.464Z,25.30
2022-12-19T12:59:18.974Z,25.40
2022-12-19T13:01:52.033Z,23.57
2022-12-19T13:04:27.131Z,24.80
2022-12-19T13:07:36.733Z,24.97
2022-12-19T13:10:19.298Z,25.53
2022-12-19T13:13:00.861Z,25.57
2022-12-19T13:15:41.892Z,24.80
2022-12-19T13:18:30.698Z,24.13
2022-12-19T13:21:00.351Z,24.07
2022-12-19T13:23:50.046Z,25.47
2022-12-19T13:26:46.355Z,23.50
2022-12-19T13:29:34.991Z,24.10
2022-12-19T13:32:14.973Z,24.43
2022-12-19T13:35:04.813Z,24.27
2022-12-19T13:39:57.249Z,23.03
2022-12-19T13:40:52.969Z,23.37
2022-12-19T13:43:42.677Z,23.77
2022-12-19T13:46:29.719Z,25.33
2022-12-19T13:49:02.968Z,25.00
2022-12-19T13:51:42.108Z,23.80
2022-12-19T13:54:26.940Z,24.60
2022-12-19T13:56:57.125Z,24.57
2022-12-19T13:59:28.241Z,24.67
2022-12-19T14:02:08.173Z,25.67
2022-12-19T14:04:36.245Z,24.23
2022-12-19T14:07:07.084Z,24.23
2022-12-19T14:11:31.973Z,23.63
2022-12-19T14:13:51.007Z,24.40
2022-12-19T14:15:37.642Z,24.43
2022-12-19T14:18:42.571Z,23.30
2022-12-19T14:22:10.548Z,25.60
2022-12-19T14:24:19.031Z,25.50
2022-12-19T14:28:25.488Z,24.80
2022-12-19T14:30:26.225Z,25.83
2022-12-19T14:33:44.501Z,25.10
2022-12-19T14:36:06.919Z,25.17
2022-12-19T14:39:27.078Z,24.13
2022-12-19T14:41:27.741Z,24.93
2022-12-19T14:53:51.467Z,25.20
2022-12-19T14:54:12.028Z,23.67
2022-12-19T14:54:22.235Z,23.53
2022-12-19T14:54:52.425Z,22.93
2022-12-19T14:56:19.548Z,23.60
2022-12-19T14:58:54.749Z,24.40
2022-12-19T15:01:24.535Z,25.30
2022-12-19T15:04:53.369Z,25.13
2022-12-19T15:07:06.767Z,25.30
2022-12-19T15:10:58.597Z,23.23
2022-12-19T15:14:52.635Z,24.90
2022-12-19T15:15:56.356Z,24.87
2022-12-19T15:18:30.036Z,25.93
2022-12-19T15:21:01.209Z,24.73
2022-12-19T15:23:33.570Z,25.50
2022-12-19T15:26:06.462Z,26.27
2022-12-19T15:28:39.961Z,25.73
2022-12-19T15:31:23.449Z,26.10
2022-12-19T15:36:39.514Z,25.73
2022-12-19T15:39:07.347Z,26.63
2022-12-19T15:41:36.924Z,26.70
2022-12-19T15:44:09.854Z,26.70
2022-12-19T15:46:42.809Z,27.43
2022-12-19T15:49:16.537Z,25.80
2022-12-19T15:51:44.785Z,25.73
2022-12-19T15:54:47.158Z,27.30
2022-12-19T15:57:02.010Z,26.47
2022-12-19T15:59:38.198Z,25.67
2022-12-19T16:02:17.709Z,26.20
2022-12-19T16:04:48.283Z,26.80
2022-12-19T16:07:18.052Z,26.63
2022-12-19T16:09:46.473Z,27.23
2022-12-19T16:12:17.873Z,27.80
2022-12-19T16:14:49.028Z,27.70
2022-12-19T16:17:22.283Z,27.90
2022-12-19T16:19:51.641Z,27.33
2022-12-19T16:22:22.418Z,27.93
2022-12-19T16:24:51.077Z,27.80
2022-12-19T16:27:23.971Z,28.67
2022-12-19T16:29:52.854Z,27.70
2022-12-19T16:32:23.051Z,28.47
2022-12-19T16:34:51.341Z,27.13
2022-12-19T16:37:19.433Z,27.43
2022-12-19T16:39:47.213Z,29.07
2022-12-19T16:42:16.955Z,29.60
2022-12-19T16:44:48.239Z,28.23
2022-12-19T16:47:18.845Z,28.37
2022-12-19T16:49:46.986Z,29.93
2022-12-19T16:52:17.156Z,29.27
2022-12-19T16:54:45.105Z,28.67
2022-12-19T16:57:20.846Z,28.17
2022-12-19T16:59:51.559Z,29.73
2022-12-19T17:02:49.038Z,30.33
2022-12-19T17:05:21.696Z,28.77
2022-12-19T17:07:52.536Z,28.97
2022-12-19T17:10:26.216Z,29.87
2022-12-19T17:12:55.659Z,31.93
2022-12-19T17:15:28.517Z,32.00
2022-12-19T17:17:59.300Z,31.27
2022-12-19T17:20:31.961Z,31.27
2022-12-19T17:23:00.025Z,32.40
2022-12-19T17:25:29.013Z,33.67
2022-12-19T17:27:57.313Z,33.03
2022-12-19T17:30:26.508Z,32.90
2022-12-19T17:32:56.117Z,32.90
2022-12-19T17:35:28.315Z,32.43
2022-12-19T17:37:58.383Z,34.87
2022-12-19T17:40:28.136Z,32.70
2022-12-19T17:42:56.669Z,32.43
2022-12-19T17:45:27.147Z,30.90
2022-12-19T17:48:02.018Z,29.60
2022-12-19T17:50:33.086Z,27.97
2022-12-19T17:53:01.154Z,27.43
2022-12-19T17:55:30.421Z,26.60
2022-12-19T17:57:59.129Z,29.37
2022-12-19T18:00:30.919Z,29.03
2022-12-19T18:03:02.529Z,27.70
2022-12-19T18:05:35.914Z,30.00
2022-12-19T18:08:04.492Z,30.00
2022-12-19T18:10:33.507Z,33.70
2022-12-19T18:13:02.589Z,31.83
2022-12-19T18:15:31.875Z,30.37
2022-12-19T18:18:00.083Z,32.30
2022-12-19T18:20:32.252Z,32.10
2022-12-19T18:23:01.684Z,30.57
2022-12-19T18:25:32.859Z,30.97
2022-12-19T18:28:00.804Z,32.23
2022-12-19T18:30:28.959Z,33.73
2022-12-19T18:33:00.680Z,35.80
2022-12-19T18:35:35.881Z,35.00
2022-12-19T18:38:06.685Z,35.50
2022-12-19T18:40:35.262Z,35.97
2022-12-19T18:43:03.309Z,36.70
2022-12-19T18:45:37.236Z,36.03
2022-12-19T18:48:12.429Z,34.50
2022-12-19T18:50:41.036Z,34.17
2022-12-19T18:53:12.558Z,34.33
2022-12-19T18:55:40.798Z,32.80
2022-12-19T18:58:08.798Z,37.60
2022-12-19T19:00:39.747Z,35.30
2022-12-19T19:03:15.243Z,36.67
2022-12-19T19:05:43.806Z,34.43
2022-12-19T19:08:18.301Z,35.90
2022-12-19T19:10:48.452Z,36.43
2022-12-19T19:13:17.591Z,35.97
2022-12-19T19:15:48.960Z,36.80
2022-12-19T19:18:23.199Z,37.43
2022-12-19T19:21:00.451Z,34.07
2022-12-19T19:23:34.716Z,35.87
2022-12-19T19:26:04.321Z,34.90
2022-12-19T19:28:32.479Z,33.20
2022-12-19T19:31:01.779Z,33.03
2022-12-19T19:33:33.908Z,32.70
2022-12-19T19:36:11.285Z,32.10
2022-12-19T19:38:43.722Z,30.43
2022-12-19T19:41:12.550Z,30.30
2022-12-19T19:43:41.352Z,31.07
2022-12-19T19:46:09.332Z,32.00
2022-12-19T19:48:38.696Z,32.50
2022-12-19T19:51:06.628Z,31.80
2022-12-19T19:53:35.982Z,32.30
2022-12-19T19:56:04.936Z,30.77
2022-12-19T19:58:33.059Z,30.60
2022-12-19T20:01:01.211Z,31.20
2022-12-19T20:03:29.441Z,29.67
2022-12-19T20:06:02.939Z,29.80
2022-12-19T20:08:38.873Z,31.33
2022-12-19T20:11:08.552Z,31.93
2022-12-19T20:13:36.700Z,30.90
2022-12-19T20:16:06.587Z,30.43
2022-12-19T20:18:35.630Z,31.93
2022-12-19T20:21:10.713Z,30.63
2022-12-19T20:23:40.983Z,29.43
2022-12-19T20:26:08.934Z,29.47
2022-12-19T20:28:39.779Z,30.87
2022-12-19T20:31:13.807Z,30.60
2022-12-19T20:33:41.807Z,29.57
2022-12-19T20:36:12.981Z,29.87
2022-12-19T20:38:41.649Z,29.93
2022-12-19T20:41:10.369Z,29.87
2022-12-19T20:43:38.807Z,30.20
2022-12-19T20:46:09.326Z,29.13
2022-12-19T20:48:38.383Z,29.37
2022-12-19T20:51:07.772Z,28.50
2022-12-19T20:53:38.716Z,29.50
2022-12-19T20:56:07.829Z,30.83
2022-12-19T20:58:37.933Z,28.63
2022-12-19T21:01:07.788Z,29.50
2022-12-19T21:03:47.984Z,29.63
2022-12-19T21:06:18.955Z,29.73
2022-12-19T21:08:48.728Z,30.30
2022-12-19T21:11:16.633Z,30.33
2022-12-19T21:13:45.331Z,29.57
2022-12-19T21:16:15.376Z,30.07
2022-12-19T21:18:45.191Z,30.53
2022-12-19T21:21:15.444Z,30.53
2022-12-19T21:23:44.878Z,32.03
2022-12-19T21:26:14.328Z,32.03
2022-12-19T21:28:42.748Z,31.07
2022-12-19T21:31:16.138Z,31.20
2022-12-19T21:33:45.170Z,36.17
2022-12-19T21:36:14.748Z,34.77
2022-12-19T21:38:42.653Z,35.30
2022-12-19T21:41:12.969Z,34.73
2022-12-19T21:43:46.523Z,35.90
2022-12-19T21:46:16.187Z,33.40
2022-12-19T21:48:46.507Z,36.47
2022-12-19T21:51:15.953Z,37.80
2022-12-19T21:53:43.943Z,38.47
2022-12-19T21:56:22.922Z,37.77
2022-12-19T21:58:53.722Z,37.87
2022-12-19T22:01:22.789Z,35.50
2022-12-19T22:03:51.898Z,34.57
2022-12-19T22:06:27.744Z,33.60
2022-12-19T22:08:56.833Z,34.37
2022-12-19T22:11:25.148Z,34.60
2022-12-19T22:13:54.770Z,34.57
2022-12-19T22:16:23.092Z,33.27
2022-12-19T22:18:52.784Z,33.30
2022-12-19T22:21:21.076Z,35.97
2022-12-19T22:23:48.972Z,33.87
2022-12-19T22:26:18.722Z,33.60
2022-12-19T22:28:48.517Z,32.60
2022-12-19T22:31:20.205Z,32.93
2022-12-19T22:33:49.201Z,34.63
2022-12-19T22:36:23.975Z,34.87
2022-12-19T22:38:55.509Z,33.13
2022-12-19T22:41:23.404Z,33.50
2022-12-19T22:43:52.225Z,32.47
2022-12-19T22:46:23.329Z,33.03
2022-12-19T22:48:51.799Z,33.33
2022-12-19T22:51:20.873Z,32.93
2022-12-19T22:53:49.390Z,34.27
2022-12-19T22:56:19.028Z,32.27
2022-12-19T22:58:49.548Z,31.70
2022-12-19T23:01:19.917Z,31.57
2022-12-19T23:03:51.708Z,32.70
2022-12-19T23:06:20.512Z,32.47
2022-12-19T23:08:49.008Z,32.23
2022-12-19T23:11:19.141Z,33.17
2022-12-19T23:13:49.214Z,30.67
2022-12-19T23:16:17.197Z,31.87
2022-12-19T23:18:45.145Z,30.47
2022-12-19T23:21:16.274Z,33.27
2022-12-19T23:23:45.904Z,30.20
2022-12-19T23:26:16.415Z,30.63
2022-12-19T23:28:45.228Z,31.50
2022-12-19T23:31:14.363Z,31.07
2022-12-19T23:33:42.379Z,30.70
2022-12-19T23:36:11.331Z,32.03
2022-12-19T23:38:42.116Z,31.10
2022-12-19T23:41:12.599Z,30.00
2022-12-19T23:43:40.911Z,32.33
2022-12-19T23:46:10.768Z,30.17
2022-12-19T23:48:38.679Z,29.27
2022-12-19T23:51:08.163Z,31.77
2022-12-19T23:53:36.298Z,30.67
2022-12-19T23:56:09.056Z,31.13
2022-12-19T23:58:36.928Z,31.10
